sensor_id;sensor_type;location;lat;lon;timestamp;P1;durP1;ratioP1;P2;durP2;ratioP2
75914;SDS011;64593;51.050;13.780;2023-02-28T07:02:47;16.85;;;9.82;;
75914;SDS011;64593;51.050;13.780;2023-02-28T07:07:51;20.90;;;9.25;;
75914;SDS011;64593;51.050;13.780;2023-02-28T07:12:53;9.05;;;3.45;;
75914;SDS011;64593;51.050;13.780;2023-02-28T07:17:55;16.92;;;8.50;;
75914;SDS011;64593;51.050;13.780;2023-02-28T07:22:57;17.30;;;9.10;;
75914;SDS011;64593;51.050;13.780;2023-02-28T07:28:03;12.48;;;5.60;;
75914;SDS011;64593;51.050;13.780;2023-02-28T07:33:05;11.23;;;5.80;;
75914;SDS011;64593;51.050;13.780;2023-02-28T07:38:06;12.38;;;6.88;;
75914;SDS011;64593;51.050;13.780;2023-02-28T07:43:11;11.90;;;6.63;;
75914;SDS011;64593;51.050;13.780;2023-02-28T07:48:15;6.15;;;4.03;;
75914;SDS011;64593;51.050;13.780;2023-02-28T07:53:17;12.57;;;5.82;;
75914;SDS011;64593;51.050;13.780;2023-02-28T07:58:20;13.77;;;5.95;;
75914;SDS011;64593;51.050;13.780;2023-02-28T08:03:23;9.40;;;4.78;;
75914;SDS011;64593;51.050;13.780;2023-02-28T08:08:25;8.70;;;4.45;;
75914;SDS011;64593;51.050;13.780;2023-02-28T08:13:32;12.30;;;6.18;;
75914;SDS011;64593;51.050;13.780;2023-02-28T08:18:34;12.40;;;7.78;;
75914;SDS011;64593;51.050;13.780;2023-02-28T08:23:36;8.65;;;3.90;;
75914;SDS011;64593;51.050;13.780;2023-02-28T08:28:40;14.68;;;6.05;;
75914;SDS011;64593;51.050;13.780;2023-02-28T08:33:43;13.63;;;6.85;;
75914;SDS011;64593;51.050;13.780;2023-02-28T08:38:46;11.55;;;5.10;;
75914;SDS011;64593;51.050;13.780;2023-02-28T08:48:55;19.83;;;8.07;;
75914;SDS011;64593;51.050;13.780;2023-02-28T08:54:02;13.65;;;5.05;;
75914;SDS011;64593;51.050;13.780;2023-02-28T08:59:09;13.70;;;7.85;;
75914;SDS011;64593;51.050;13.780;2023-02-28T09:04:13;14.02;;;6.75;;
75914;SDS011;64593;51.050;13.780;2023-02-28T09:09:16;14.88;;;7.68;;
75914;SDS011;64593;51.050;13.780;2023-02-28T09:14:21;15.90;;;7.53;;
75914;SDS011;64593;51.050;13.780;2023-02-28T09:19:26;12.88;;;4.60;;
75914;SDS011;64593;51.050;13.780;2023-02-28T09:24:28;11.35;;;4.72;;
75914;SDS011;64593;51.050;13.780;2023-02-28T09:29:35;12.75;;;7.57;;
75914;SDS011;64593;51.050;13.780;2023-02-28T09:34:37;13.48;;;6.40;;
75914;SDS011;64593;51.050;13.780;2023-02-28T09:39:44;12.48;;;5.82;;
75914;SDS011;64593;51.050;13.780;2023-02-28T09:44:48;8.18;;;4.20;;
75914;SDS011;64593;51.050;13.780;2023-02-28T09:49:51;7.45;;;3.67;;
75914;SDS011;64593;51.050;13.780;2023-02-28T09:55:19;10.35;;;5.13;;
75914;SDS011;64593;51.050;13.780;2023-02-28T10:00:24;13.40;;;8.43;;
75914;SDS011;64593;51.050;13.780;2023-02-28T10:05:36;6.47;;;3.97;;
75914;SDS011;64593;51.050;13.780;2023-02-28T10:11:16;8.30;;;4.18;;
75914;SDS011;64593;51.050;13.780;2023-02-28T10:27:34;15.40;;;6.93;;
75914;SDS011;64593;51.050;13.780;2023-02-28T10:32:41;10.73;;;6.63;;
75914;SDS011;64593;51.050;13.780;2023-02-28T10:37:54;11.63;;;7.00;;
75914;SDS011;64593;51.050;13.780;2023-02-28T10:43:22;9.70;;;5.78;;
75914;SDS011;64593;51.050;13.780;2023-02-28T11:04:37;14.55;;;8.85;;
75914;SDS011;64593;51.050;13.780;2023-02-28T11:10:05;10.57;;;6.55;;
75914;SDS011;64593;51.050;13.780;2023-02-28T11:15:19;13.93;;;8.13;;
75914;SDS011;64593;51.050;13.780;2023-02-28T11:20:25;15.50;;;8.15;;
75914;SDS011;64593;51.050;13.780;2023-02-28T11:25:32;13.23;;;7.53;;
75914;SDS011;64593;51.050;13.780;2023-02-28T11:35:41;12.07;;;8.23;;
75914;SDS011;64593;51.050;13.780;2023-02-28T11:46:51;11.38;;;6.30;;
75914;SDS011;64593;51.050;13.780;2023-02-28T11:51:57;7.18;;;4.15;;
75914;SDS011;64593;51.050;13.780;2023-02-28T12:08:23;13.20;;;6.75;;
75914;SDS011;64593;51.050;13.780;2023-02-28T12:18:47;8.95;;;5.10;;
75914;SDS011;64593;51.050;13.780;2023-02-28T12:29:19;6.03;;;3.65;;
75914;SDS011;64593;51.050;13.780;2023-02-28T12:34:28;12.20;;;6.97;;
75914;SDS011;64593;51.050;13.780;2023-02-28T12:39:34;15.05;;;8.65;;
75914;SDS011;64593;51.050;13.780;2023-02-28T12:50:51;12.02;;;7.63;;
75914;SDS011;64593;51.050;13.780;2023-02-28T12:56:07;13.23;;;7.05;;
75914;SDS011;64593;51.050;13.780;2023-02-28T13:02:09;11.45;;;6.25;;
75914;SDS011;64593;51.050;13.780;2023-02-28T13:13:11;15.88;;;8.10;;
75914;SDS011;64593;51.050;13.780;2023-02-28T13:18:42;11.02;;;5.72;;
75914;SDS011;64593;51.050;13.780;2023-02-28T13:24:11;16.27;;;10.60;;
75914;SDS011;64593;51.050;13.780;2023-02-28T13:29:51;17.88;;;8.30;;
75914;SDS011;64593;51.050;13.780;2023-02-28T13:35:46;13.38;;;8.05;;
75914;SDS011;64593;51.050;13.780;2023-02-28T13:40:55;20.45;;;8.57;;
75914;SDS011;64593;51.050;13.780;2023-02-28T13:46:24;7.55;;;4.60;;
75914;SDS011;64593;51.050;13.780;2023-02-28T13:51:38;12.95;;;7.28;;
75914;SDS011;64593;51.050;13.780;2023-02-28T14:08:10;15.80;;;8.07;;
75914;SDS011;64593;51.050;13.780;2023-02-28T14:19:00;13.90;;;8.73;;
75914;SDS011;64593;51.050;13.780;2023-02-28T14:36:23;13.23;;;7.78;;
75914;SDS011;64593;51.050;13.780;2023-02-28T14:41:37;11.45;;;6.55;;
75914;SDS011;64593;51.050;13.780;2023-02-28T14:46:45;15.40;;;8.65;;
75914;SDS011;64593;51.050;13.780;2023-02-28T14:58:01;16.85;;;8.88;;
75914;SDS011;64593;51.050;13.780;2023-02-28T15:03:46;14.27;;;8.00;;
75914;SDS011;64593;51.050;13.780;2023-02-28T15:09:17;15.52;;;8.50;;
75914;SDS011;64593;51.050;13.780;2023-02-28T15:14:50;16.20;;;8.70;;
75914;SDS011;64593;51.050;13.780;2023-02-28T15:19:59;18.00;;;10.35;;
75914;SDS011;64593;51.050;13.780;2023-02-28T15:25:04;18.85;;;8.68;;
75914;SDS011;64593;51.050;13.780;2023-02-28T15:30:33;17.05;;;8.80;;
75914;SDS011;64593;51.050;13.780;2023-02-28T15:35:35;15.07;;;6.47;;
75914;SDS011;64593;51.050;13.780;2023-02-28T15:40:42;14.38;;;7.68;;
75914;SDS011;64593;51.050;13.780;2023-02-28T15:46:22;14.00;;;7.13;;
75914;SDS011;64593;51.050;13.780;2023-02-28T15:51:51;14.55;;;6.82;;
75914;SDS011;64593;51.050;13.780;2023-02-28T15:56:57;14.07;;;5.63;;
75914;SDS011;64593;51.050;13.780;2023-02-28T16:07:37;8.93;;;3.05;;
75914;SDS011;64593;51.050;13.780;2023-02-28T16:12:45;6.93;;;3.65;;
75914;SDS011;64593;51.050;13.780;2023-02-28T16:18:12;8.50;;;4.03;;
75914;SDS011;64593;51.050;13.780;2023-02-28T16:23:39;8.07;;;4.68;;
75914;SDS011;64593;51.050;13.780;2023-02-28T16:28:44;17.70;;;8.07;;
75914;SDS011;64593;51.050;13.780;2023-02-28T16:34:15;17.40;;;8.98;;
75914;SDS011;64593;51.050;13.780;2023-02-28T16:39:18;16.27;;;9.05;;
75914;SDS011;64593;51.050;13.780;2023-02-28T16:44:27;24.13;;;11.63;;
75914;SDS011;64593;51.050;13.780;2023-02-28T16:49:37;23.92;;;11.18;;
75914;SDS011;64593;51.050;13.780;2023-02-28T16:54:40;21.00;;;10.23;;
75914;SDS011;64593;51.050;13.780;2023-02-28T17:00:12;20.30;;;10.25;;
75914;SDS011;64593;51.050;13.780;2023-02-28T17:05:39;18.80;;;9.38;;
75914;SDS011;64593;51.050;13.780;2023-02-28T17:10:41;22.88;;;10.75;;
75914;SDS011;64593;51.050;13.780;2023-02-28T17:16:11;18.02;;;9.77;;
75914;SDS011;64593;51.050;13.780;2023-02-28T17:21:19;20.05;;;10.50;;
75914;SDS011;64593;51.050;13.780;2023-02-28T17:26:47;21.20;;;10.07;;
75914;SDS011;64593;51.050;13.780;2023-02-28T17:32:15;25.13;;;11.23;;
75914;SDS011;64593;51.050;13.780;2023-02-28T17:37:19;23.77;;;11.02;;
75914;SDS011;64593;51.050;13.780;2023-02-28T17:42:51;22.15;;;10.50;;
75914;SDS011;64593;51.050;13.780;2023-02-28T17:48:20;20.70;;;10.27;;
75914;SDS011;64593;51.050;13.780;2023-02-28T17:53:27;20.80;;;10.55;;
75914;SDS011;64593;51.050;13.780;2023-02-28T17:58:30;24.55;;;11.57;;
75914;SDS011;64593;51.050;13.780;2023-02-28T18:03:57;18.48;;;10.50;;
75914;SDS011;64593;51.050;13.780;2023-02-28T18:09:27;22.77;;;10.25;;
75914;SDS011;64593;51.050;13.780;2023-02-28T18:14:31;22.33;;;9.82;;
75914;SDS011;64593;51.050;13.780;2023-02-28T18:19:35;18.27;;;9.73;;
75914;SDS011;64593;51.050;13.780;2023-02-28T18:25:06;19.58;;;9.65;;
75914;SDS011;64593;51.050;13.780;2023-02-28T18:30:12;21.25;;;10.07;;
75914;SDS011;64593;51.050;13.780;2023-02-28T18:35:14;23.65;;;9.82;;
75914;SDS011;64593;51.050;13.780;2023-02-28T18:40:50;18.92;;;9.52;;
75914;SDS011;64593;51.050;13.780;2023-02-28T18:46:20;21.30;;;9.52;;
75914;SDS011;64593;51.050;13.780;2023-02-28T18:51:47;24.15;;;10.82;;
75914;SDS011;64593;51.050;13.780;2023-02-28T18:57:15;23.92;;;11.32;;
75914;SDS011;64593;51.050;13.780;2023-02-28T19:02:24;26.02;;;10.65;;
75914;SDS011;64593;51.050;13.780;2023-02-28T19:07:53;29.63;;;11.73;;
75914;SDS011;64593;51.050;13.780;2023-02-28T19:12:55;33.07;;;11.80;;
75914;SDS011;64593;51.050;13.780;2023-02-28T19:18:23;19.35;;;11.13;;
75914;SDS011;64593;51.050;13.780;2023-02-28T19:23:29;21.70;;;11.40;;
75914;SDS011;64593;51.050;13.780;2023-02-28T19:29:00;21.45;;;11.35;;
75914;SDS011;64593;51.050;13.780;2023-02-28T19:34:03;19.40;;;10.10;;
75914;SDS011;64593;51.050;13.780;2023-02-28T19:39:31;23.30;;;11.35;;
75914;SDS011;64593;51.050;13.780;2023-02-28T19:45:06;24.00;;;11.05;;
75914;SDS011;64593;51.050;13.780;2023-02-28T19:50:11;25.77;;;13.80;;
75914;SDS011;64593;51.050;13.780;2023-02-28T19:55:14;29.45;;;15.00;;
75914;SDS011;64593;51.050;13.780;2023-02-28T20:00:16;31.10;;;13.95;;
75914;SDS011;64593;51.050;13.780;2023-02-28T20:05:45;26.88;;;13.75;;
75914;SDS011;64593;51.050;13.780;2023-02-28T20:10:48;25.15;;;12.63;;
75914;SDS011;64593;51.050;13.780;2023-02-28T20:15:52;28.88;;;14.60;;
75914;SDS011;64593;51.050;13.780;2023-02-28T20:20:57;24.70;;;13.43;;
75914;SDS011;64593;51.050;13.780;2023-02-28T20:26:24;31.38;;;15.93;;
75914;SDS011;64593;51.050;13.780;2023-02-28T20:31:28;28.92;;;15.77;;
75914;SDS011;64593;51.050;13.780;2023-02-28T20:36:34;35.58;;;16.40;;
75914;SDS011;64593;51.050;13.780;2023-02-28T20:42:01;34.97;;;16.75;;
75914;SDS011;64593;51.050;13.780;2023-02-28T20:47:30;37.75;;;17.60;;
75914;SDS011;64593;51.050;13.780;2023-02-28T20:52:42;23.95;;;11.90;;
75914;SDS011;64593;51.050;13.780;2023-02-28T20:58:11;28.27;;;16.25;;
75914;SDS011;64593;51.050;13.780;2023-02-28T21:03:39;38.35;;;17.58;;
75914;SDS011;64593;51.050;13.780;2023-02-28T21:09:18;35.25;;;18.15;;
75914;SDS011;64593;51.050;13.780;2023-02-28T21:14:21;34.00;;;17.85;;
75914;SDS011;64593;51.050;13.780;2023-02-28T21:19:49;43.33;;;20.20;;
75914;SDS011;64593;51.050;13.780;2023-02-28T21:24:52;45.53;;;20.23;;
75914;SDS011;64593;51.050;13.780;2023-02-28T21:29:54;44.00;;;20.45;;
75914;SDS011;64593;51.050;13.780;2023-02-28T21:34:59;38.75;;;19.67;;
75914;SDS011;64593;51.050;13.780;2023-02-28T21:40:32;40.83;;;20.85;;
75914;SDS011;64593;51.050;13.780;2023-02-28T21:46:00;42.95;;;20.52;;
75914;SDS011;64593;51.050;13.780;2023-02-28T21:51:04;15.88;;;9.02;;
75914;SDS011;64593;51.050;13.780;2023-02-28T21:56:31;37.15;;;18.50;;
75914;SDS011;64593;51.050;13.780;2023-02-28T22:10:33;10.65;;;4.75;;
75914;SDS011;64593;51.050;13.780;2023-02-28T22:36:51;8.40;;;4.95;;
